Time;durP1;ratioP1;P1;durP2;ratioP2;P2;SDS_P1;SDS_P2;PMS_P1;PMS_P2;Temp;Humidity;BMP_temperature;BMP_pressure;BME280_temperature;BME280_humidity;BME280_pressure;Samples;Min_cycle;Max_cycle;Signal;HPM_P1;HPM_P2
2024/01/11 00:00:19;;;;;;;59.10;34.60;;;;;;;-11.19;100.00;99774.03;15295403;19;20021;-49
2024/01/11 00:05:45;;;;;;;63.57;37.17;;;;;;;-11.30;100.00;99773.09;15292740;19;20368;-49
2024/01/11 00:11:16;;;;;;;66.30;36.47;;;;;;;-11.32;100.00;99772.22;15293173;19;20016;-49
2024/01/11 00:16:43;;;;;;;68.80;38.50;;;;;;;-11.28;100.00;99771.38;15283327;19;20466;-49
2024/01/11 00:22:08;;;;;;;63.00;36.20;;;;;;;-11.28;100.00;99771.38;15292457;19;20695;-52
2024/01/11 00:27:34;;;;;;;60.60;34.80;;;;;;;-11.29;100.00;99759.25;15287768;19;20015;-52
2024/01/11 00:33:01;;;;;;;65.77;35.80;;;;;;;-11.28;100.00;99749.69;15288651;19;20015;-51
2024/01/11 00:38:28;;;;;;;58.57;33.27;;;;;;;-11.28;100.00;99763.59;15290945;19;20027;-52
2024/01/11 00:43:52;;;;;;;57.10;34.20;;;;;;;-11.33;100.00;99753.16;15286854;19;20023;-49
2024/01/11 00:49:19;;;;;;;58.27;32.40;;;;;;;-11.39;100.00;99753.09;15285612;19;20019;-49
2024/01/11 00:54:45;;;;;;;60.47;33.53;;;;;;;-11.41;100.00;99756.56;15285145;19;20019;-52
2024/01/11 01:00:13;;;;;;;55.40;32.03;;;;;;;-11.43;100.00;99750.50;15289922;19;20077;-50
2024/01/11 01:05:41;;;;;;;60.43;34.03;;;;;;;-11.44;100.00;99749.63;15291260;19;20017;-48
2024/01/11 01:11:06;;;;;;;57.70;33.27;;;;;;;-11.43;100.00;99737.47;15285742;19;20022;-48
2024/01/11 01:16:30;;;;;;;61.87;36.23;;;;;;;-11.45;100.00;99734.88;15281457;19;20018;-48
2024/01/11 01:21:57;;;;;;;57.30;33.20;;;;;;;-11.48;100.00;99720.13;15282874;19;20025;-48
2024/01/11 01:27:22;;;;;;;61.50;35.27;;;;;;;-11.50;100.00;99710.56;15280710;19;20018;-48
2024/01/11 01:32:47;;;;;;;59.00;35.43;;;;;;;-11.54;100.00;99714.88;15287699;19;20481;-50
2024/01/11 01:38:08;;;;;;;60.17;35.37;;;;;;;-11.57;100.00;99720.06;15284617;19;20409;-50
2024/01/11 01:43:32;;;;;;;62.17;33.77;;;;;;;-11.60;100.00;99722.66;15282443;19;20021;-50
2024/01/11 01:48:59;;;;;;;66.17;33.10;;;;;;;-11.59;100.00;99720.94;15283339;19;20023;-50
2024/01/11 01:54:30;;;;;;;61.50;34.43;;;;;;;-11.60;100.00;99709.66;15278830;19;20500;-49
2024/01/11 01:59:55;;;;;;;58.45;33.83;;;;;;;-11.63;100.00;99707.91;15287175;19;20010;-47
2024/01/11 02:05:25;;;;;;;56.80;32.03;;;;;;;-11.63;100.00;99712.25;15287268;19;20026;-50
2024/01/11 02:10:52;;;;;;;53.80;31.03;;;;;;;-11.69;100.00;99726.06;15286892;19;20476;-49
2024/01/11 02:16:17;;;;;;;61.37;32.93;;;;;;;-11.72;100.00;99720.00;15286045;19;20030;-50
2024/01/11 02:21:44;;;;;;;58.70;34.63;;;;;;;-11.71;100.00;99714.78;15288083;19;20355;-51
2024/01/11 02:27:13;;;;;;;58.30;34.20;;;;;;;-11.71;100.00;99725.19;15298283;19;20025;-49
2024/01/11 02:32:38;;;;;;;57.20;34.93;;;;;;;-11.73;100.00;99713.06;15300066;19;20023;-53
2024/01/11 02:38:03;;;;;;;54.73;32.33;;;;;;;-11.78;100.00;99711.28;15293293;19;20074;-49
2024/01/11 02:43:30;;;;;;;58.87;32.70;;;;;;;-11.80;100.00;99710.41;15292803;19;20046;-48
2024/01/11 02:48:55;;;;;;;52.13;30.63;;;;;;;-11.82;100.00;99721.66;15295365;19;20582;-49
2024/01/11 02:54:20;;;;;;;56.70;31.63;;;;;;;-11.89;100.00;99697.34;15292066;19;20022;-48
2024/01/11 02:59:49;;;;;;;57.13;31.63;;;;;;;-11.95;100.00;99707.72;15296715;19;20964;-48
2024/01/11 03:05:14;;;;;;;57.33;32.57;;;;;;;-12.09;100.00;99726.69;15300217;19;20367;-50
2024/01/11 03:10:38;;;;;;;54.23;31.03;;;;;;;-12.14;100.00;99727.53;15296235;19;20035;-48
2024/01/11 03:16:13;;;;;;;58.83;32.13;;;;;;;-12.14;100.00;99725.78;15296082;19;20343;-49
2024/01/11 03:21:42;;;;;;;55.60;31.90;;;;;;;-12.15;100.00;99730.97;15297458;19;20014;-47
2024/01/11 03:27:08;;;;;;;58.17;34.17;;;;;;;-12.17;100.00;99727.50;15293617;19;20375;-49
2024/01/11 03:32:38;;;;;;;54.83;33.37;;;;;;;-12.16;100.00;99735.28;15294271;19;20715;-47
2024/01/11 03:38:07;;;;;;;59.07;32.50;;;;;;;-12.18;100.00;99731.81;15286760;19;20018;-49
2024/01/11 03:43:33;;;;;;;55.70;31.73;;;;;;;-12.23;100.00;99728.31;15288057;19;20019;-49
2024/01/11 03:49:02;;;;;;;54.20;30.13;;;;;;;-12.29;100.00;99723.06;15294400;19;20014;-49
2024/01/11 03:54:27;;;;;;;55.60;33.23;;;;;;;-12.34;100.00;99720.41;15288932;19;20015;-52
2024/01/11 03:59:59;;;;;;;54.97;30.87;;;;;;;-12.40;100.00;99712.59;15285898;19;20014;-48
2024/01/11 04:05:32;;;;;;;51.60;30.30;;;;;;;-12.50;100.00;99722.00;15296247;19;20010;-48
2024/01/11 04:10:56;;;;;;;52.93;30.77;;;;;;;-12.54;100.00;99715.06;15294096;19;20014;-47
2024/01/11 04:16:29;;;;;;;55.40;31.00;;;;;;;-12.58;100.00;99702.91;15293197;19;20089;-46
2024/01/11 04:21:59;;;;;;;55.77;30.10;;;;;;;-12.60;100.00;99710.69;15293400;19;20418;-49
2024/01/11 04:27:24;;;;;;;55.07;31.27;;;;;;;-12.63;100.00;99701.97;15286696;19;20021;-46
2024/01/11 04:32:49;;;;;;;55.30;31.10;;;;;;;-12.63;100.00;99710.66;15287016;19;20021;-48
2024/01/11 04:38:17;;;;;;;56.23;33.73;;;;;;;-12.66;100.00;99691.56;15283365;19;20021;-48
2024/01/11 04:43:42;;;;;;;65.13;35.47;;;;;;;-12.64;100.00;99684.69;15282168;19;20017;-50
2024/01/11 04:49:06;;;;;;;64.63;33.80;;;;;;;-12.64;100.00;99695.06;15292143;19;20021;-49
2024/01/11 04:54:33;;;;;;;67.70;35.47;;;;;;;-12.63;100.00;99701.97;15285133;19;20081;-46
2024/01/11 04:59:58;;;;;;;59.93;34.23;;;;;;;-12.63;100.00;99720.13;15287187;19;20345;-48
2024/01/11 05:05:23;;;;;;;57.30;32.10;;;;;;;-12.63;100.00;99741.78;15284268;19;20097;-48
2024/01/11 05:10:51;;;;;;;54.30;32.53;;;;;;;-12.59;100.00;99742.69;15288312;19;20089;-47
2024/01/11 05:16:31;;;;;;;61.13;32.93;;;;;;;-12.58;100.00;99770.41;15287998;19;20027;-48
2024/01/11 05:21:56;;;;;;;59.30;32.03;;;;;;;-12.58;100.00;99791.16;15289857;19;20014;-48
2024/01/11 05:27:24;;;;;;;56.07;30.50;;;;;;;-12.58;100.00;99781.63;15290913;19;20022;-48
2024/01/11 05:32:49;;;;;;;53.33;30.67;;;;;;;-12.57;100.00;99793.75;15288545;19;20391;-47
2024/01/11 05:38:14;;;;;;;54.37;31.37;;;;;;;-12.60;100.00;99785.97;15278283;19;20527;-48
2024/01/11 05:43:43;;;;;;;56.20;31.50;;;;;;;-12.60;100.00;99764.31;15279211;19;20029;-46
2024/01/11 05:49:07;;;;;;;54.33;32.10;;;;;;;-12.63;100.00;99756.47;15283010;19;20016;-47
2024/01/11 05:54:33;;;;;;;53.27;30.20;;;;;;;-12.66;100.00;99751.28;15284608;19;20027;-46
2024/01/11 06:00:00;;;;;;;51.87;28.53;;;;;;;-12.73;100.00;99748.59;15301041;19;20017;-48
2024/01/11 06:05:25;;;;;;;51.53;29.80;;;;;;;-12.79;100.00;99743.38;15302552;19;20077;-47
2024/01/11 06:10:49;;;;;;;52.13;30.20;;;;;;;-12.84;100.00;99737.22;15295760;19;20014;-46
2024/01/11 06:16:23;;;;;;;56.27;31.77;;;;;;;-12.90;100.00;99740.63;15295352;19;20043;-46
2024/01/11 06:21:48;;;;;;;54.43;30.83;;;;;;;-12.98;100.00;99733.59;15298669;19;20344;-46
2024/01/11 06:27:13;;;;;;;57.70;33.47;;;;;;;-12.99;100.00;99755.25;15295016;19;20739;-48
2024/01/11 06:32:41;;;;;;;61.87;34.37;;;;;;;-12.94;100.00;99792.47;15292482;19;20831;-46
2024/01/11 06:38:07;;;;;;;57.67;32.77;;;;;;;-12.91;100.00;99784.75;15291903;19;20021;-47
2024/01/11 06:43:25;;;;;;;57.33;32.57;;;;;;;-12.88;100.00;99779.59;15283486;19;20030;-47
2024/01/11 06:48:52;;;;;;;57.63;32.97;;;;;;;-12.87;100.00;99786.50;15297637;19;20367;-47
2024/01/11 06:54:37;;;;;;;55.47;31.33;;;;;;;-12.82;100.00;99784.84;15287527;19;20026;-46
2024/01/11 07:00:02;;;;;;;54.67;30.97;;;;;;;-12.80;100.00;99809.09;15297178;19;20432;-46
2024/01/11 07:05:29;;;;;;;54.90;32.23;;;;;;;-12.73;100.00;99817.81;15300821;19;20031;-47
2024/01/11 07:10:54;;;;;;;51.77;29.90;;;;;;;-12.71;100.00;99809.19;14780848;19;10000999;-47
2024/01/11 07:16:25;;;;;;;57.13;31.83;;;;;;;-12.66;100.00;99805.78;15286718;19;20011;-48
2024/01/11 07:21:52;;;;;;;53.23;30.53;;;;;;;-12.64;100.00;99794.56;15207823;19;20491;-47
2024/01/11 07:27:17;;;;;;;54.90;30.77;;;;;;;-12.62;100.00;99782.47;15298088;19;20086;-46
2024/01/11 07:32:42;;;;;;;53.83;30.77;;;;;;;-12.60;100.00;99779.88;15294915;19;20086;-49
2024/01/11 07:38:10;;;;;;;56.33;32.63;;;;;;;-12.59;100.00;99755.66;15296348;19;20018;-47
2024/01/11 07:43:35;;;;;;;59.60;32.80;;;;;;;-12.62;100.00;99773.81;15289454;19;20038;-49
2024/01/11 07:49:10;;;;;;;57.47;31.50;;;;;;;-12.59;100.00;99756.56;15290098;19;20014;-46
2024/01/11 07:54:40;;;;;;;55.53;31.47;;;;;;;-12.45;100.00;99761.88;15290996;19;20091;-46
2024/01/11 08:00:06;;;;;;;68.87;34.60;;;;;;;-12.32;100.00;99781.03;15291885;19;20030;-48
2024/01/11 08:05:25;;;;;;;66.10;35.10;;;;;;;-12.17;100.00;99764.72;15295170;19;20100;-47
2024/01/11 08:10:52;;;;;;;57.33;33.13;;;;;;;-12.03;100.00;99745.78;15288675;19;20025;-46
2024/01/11 08:16:27;;;;;;;56.88;32.35;;;;;;;-11.95;100.00;99749.28;15289848;19;20042;-47
2024/01/11 08:21:56;;;;;;;57.43;31.27;;;;;;;-11.86;100.00;99745.88;15288945;19;20105;-46
2024/01/11 08:27:23;;;;;;;58.70;32.07;;;;;;;-11.79;100.00;99748.53;15292361;19;20094;-48
2024/01/11 08:32:48;;;;;;;59.73;32.57;;;;;;;-11.73;100.00;99746.84;15267704;19;20011;-50
2024/01/11 08:38:12;;;;;;;58.33;32.00;;;;;;;-11.68;100.00;99760.72;15289788;19;20820;-46
2024/01/11 08:43:39;;;;;;;51.07;30.03;;;;;;;-11.60;100.00;99759.06;15291044;19;20014;-48
2024/01/11 08:49:04;;;;;;;53.20;29.77;;;;;;;-11.49;100.00;99754.81;15289241;19;20024;-47
2024/01/11 08:54:29;;;;;;;58.13;30.40;;;;;;;-11.36;100.00;99750.53;15285279;19;20093;-47
2024/01/11 08:59:57;;;;;;;59.77;31.40;;;;;;;-11.25;100.00;99763.59;15281550;19;20086;-47
2024/01/11 09:05:22;;;;;;;51.03;28.80;;;;;;;-11.10;100.00;99765.41;15282996;19;20014;-46
2024/01/11 09:10:46;;;;;;;58.37;31.67;;;;;;;-10.91;100.00;99781.97;15288309;19;20014;-47
2024/01/11 09:16:24;;;;;;;60.20;33.43;;;;;;;-10.70;100.00;99788.97;15028065;19;5001374;-48
2024/01/11 09:21:49;;;;;;;66.43;32.43;;;;;;;-10.52;100.00;99776.03;15282819;19;20025;-48
2024/01/11 09:27:13;;;;;;;56.87;32.00;;;;;;;-10.31;100.00;99770.84;15289552;19;20014;-50
2024/01/11 09:32:40;;;;;;;60.70;34.30;;;;;;;-10.13;100.00;99766.50;15286459;19;20011;-47
2024/01/11 09:38:05;;;;;;;60.37;34.00;;;;;;;-10.06;100.00;99782.16;15285564;19;20360;-48
2024/01/11 09:43:30;;;;;;;65.27;35.80;;;;;;;-9.91;100.00;99786.50;15285789;19;20043;-46
2024/01/11 09:48:59;;;;;;;60.17;32.77;;;;;;;-9.79;100.00;99776.94;15288192;19;20018;-48
2024/01/11 09:54:25;;;;;;;61.30;35.10;;;;;;;-9.64;100.00;99768.25;15275628;19;20502;-48
2024/01/11 09:59:51;;;;;;;58.47;34.07;;;;;;;-9.49;100.00;99783.00;15280992;19;20025;-48
2024/01/11 10:05:19;;;;;;;59.17;34.50;;;;;;;-9.27;100.00;99764.69;15285322;19;20062;-47
2024/01/11 10:10:44;;;;;;;57.67;33.50;;;;;;;-9.16;100.00;99765.53;15283560;19;20019;-48
2024/01/11 10:16:17;;;;;;;64.85;36.85;;;;;;;-8.98;100.00;99765.47;15283266;19;20483;-47
2024/01/11 10:21:45;;;;;;;63.55;36.85;;;;;;;-8.80;100.00;99781.94;15284358;19;20021;-48
2024/01/11 10:27:10;;;;;;;69.60;37.70;;;;;;;-8.68;100.00;99762.72;15276796;19;20026;-48
2024/01/11 10:32:35;;;;;;;64.63;36.58;;;;;;;-8.53;100.00;99765.25;15279831;19;20393;-47
2024/01/11 10:38:04;;;;;;;62.28;37.25;;;;;;;-8.38;100.00;99772.09;15279695;19;20618;-48
2024/01/11 10:43:32;;;;;;;57.88;36.10;;;;;;;-8.17;100.00;99743.22;15025055;19;5001240;-47
2024/01/11 10:49:00;;;;;;;55.30;33.92;;;;;;;-8.02;100.00;99739.63;15297008;19;20015;-48
2024/01/11 10:54:30;;;;;;;60.83;36.33;;;;;;;-7.86;100.00;99729.88;15292603;19;20022;-48
2024/01/11 10:59:57;;;;;;;;;;;;;;;-7.70;100.00;99714.94;15284072;19;20519;-47
2024/01/11 11:05:24;;;;;;;58.42;33.63;;;;;;;-7.48;100.00;99711.22;15295009;19;20289;-47
2024/01/11 11:10:52;;;;;;;62.30;34.42;;;;;;;-7.34;100.00;99716.31;15293744;19;20029;-48
2024/01/11 11:16:24;;;;;;;61.55;35.10;;;;;;;-7.13;100.00;99711.69;15342407;19;20015;-78
2024/01/11 11:21:51;;;;;;;58.45;34.17;;;;;;;-6.90;100.00;99706.19;15307428;19;20436;-80
2024/01/11 11:27:22;;;;;;;56.17;35.35;;;;;;;-6.70;100.00;99708.50;15307091;19;20021;-79
2024/01/11 11:32:47;;;;;;;;;;;;;;;-6.51;100.00;99689.91;15297435;19;20019;-76
2024/01/11 11:38:12;;;;;;;50.67;32.53;;;;;;;-6.28;100.00;99696.56;15292146;19;20408;-76
2024/01/11 11:43:42;;;;;;;52.38;31.30;;;;;;;-6.04;100.00;99688.31;15292685;19;20374;-78
2024/01/11 11:49:07;;;;;;;51.20;32.38;;;;;;;-5.82;100.00;99676.53;15300289;19;20025;-78
2024/01/11 11:54:33;;;;;;;49.10;31.10;;;;;;;-5.66;100.00;99679.75;15288434;19;20371;-78
2024/01/11 12:00:05;;;;;;;52.33;31.27;;;;;;;-5.54;100.00;99658.53;15294133;19;20014;-78
2024/01/11 12:05:30;;;;;;;49.53;31.05;;;;;;;-5.36;100.00;99665.19;15292631;19;20037;-77
2024/01/11 12:10:55;;;;;;;44.58;29.42;;;;;;;-5.28;100.00;99658.00;15295779;19;20018;-78
2024/01/11 12:16:24;;;;;;;43.60;29.38;;;;;;;-5.19;100.00;99651.69;15291362;19;20496;-78
2024/01/11 12:21:48;;;;;;;44.95;29.65;;;;;;;-5.05;100.00;99654.03;15295712;19;20022;-78
2024/01/11 12:27:13;;;;;;;45.63;30.13;;;;;;;-4.90;100.00;99655.47;15302777;19;20021;-78
2024/01/11 12:32:40;;;;;;;43.65;30.05;;;;;;;-4.76;100.00;99649.88;15285065;19;20036;-54
2024/01/11 12:38:07;;;;;;;44.38;28.95;;;;;;;-4.53;100.00;99638.84;15283214;19;20016;-52
2024/01/11 12:43:34;;;;;;;42.30;28.73;;;;;;;-4.28;100.00;99642.66;15288115;19;20495;-53
2024/01/11 12:49:02;;;;;;;41.58;27.25;;;;;;;-3.92;100.00;99634.72;15289460;19;20082;-55
2024/01/11 12:54:26;;;;;;;43.78;29.02;;;;;;;-3.56;100.00;99621.47;15289001;19;20095;-52
2024/01/11 12:59:52;;;;;;;38.50;26.80;;;;;;;-3.12;100.00;99592.13;15288945;19;20284;-55
2024/01/11 13:05:19;;;;;;;44.20;27.00;;;;;;;-2.81;100.00;99580.63;15281557;19;20031;-58
2024/01/11 13:10:45;;;;;;;40.80;27.92;;;;;;;-2.73;100.00;99578.63;15284947;19;20011;-53
2024/01/11 13:16:14;;;;;;;41.03;26.38;;;;;;;-2.73;100.00;99586.53;15283481;19;20293;-52
2024/01/11 13:21:41;;;;;;;39.13;25.70;;;;;;;-2.74;100.00;99584.81;15285319;19;20082;-55
2024/01/11 13:27:06;;;;;;;40.38;26.27;;;;;;;-2.77;100.00;99576.13;15298425;19;20406;-55
2024/01/11 13:32:31;;;;;;;35.83;26.30;;;;;;;-2.87;100.00;99576.41;15291279;19;20025;-58
2024/01/11 13:37:58;;;;;;;39.80;26.60;;;;;;;-2.91;100.00;99574.78;15287473;19;20014;-56
2024/01/11 13:43:23;;;;;;;40.17;27.05;;;;;;;-2.94;100.00;99595.97;15279566;19;20015;-55
2024/01/11 13:48:47;;;;;;;37.33;26.17;;;;;;;-2.91;100.00;99605.56;15279357;19;20082;-57
2024/01/11 13:54:16;;;;;;;36.20;25.60;;;;;;;-2.79;100.00;99595.50;15280515;19;20033;-59
2024/01/11 13:59:40;;;;;;;36.97;26.80;;;;;;;-2.65;100.00;99592.44;15283765;19;20022;-56
2024/01/11 14:05:07;;;;;;;38.17;25.77;;;;;;;-2.35;100.00;99599.41;15282412;19;20026;-57
2024/01/11 14:10:35;;;;;;;40.35;26.55;;;;;;;-2.12;100.00;99596.00;15282652;19;20025;-59
2024/01/11 14:16:00;;;;;;;37.35;25.95;;;;;;;-1.86;100.00;99594.22;15277602;19;20034;-57
2024/01/11 14:21:24;;;;;;;36.42;25.08;;;;;;;-1.68;100.00;99599.78;15292252;19;20034;-58
2024/01/11 14:26:52;;;;;;;32.50;23.98;;;;;;;-1.63;100.00;99609.28;15292537;19;20027;-56
2024/01/11 14:32:16;;;;;;;35.60;24.60;;;;;;;-1.68;100.00;99607.72;15297868;19;20026;-54
2024/01/11 14:37:53;;;;;;;33.65;24.83;;;;;;;-1.93;100.00;99621.78;15297764;19;20018;-57
2024/01/11 14:43:21;;;;;;;34.30;23.75;;;;;;;-2.08;100.00;99617.88;15289743;19;20043;-56
2024/01/11 14:48:46;;;;;;;34.83;25.13;;;;;;;-2.32;100.00;99620.41;15291032;19;20072;-58
2024/01/11 14:54:12;;;;;;;35.40;25.52;;;;;;;-2.45;100.00;99646.31;15291241;19;20110;-55
2024/01/11 14:59:39;;;;;;;38.97;26.73;;;;;;;-2.63;100.00;99658.31;15292693;19;20082;-54
2024/01/11 15:05:05;;;;;;;38.28;25.15;;;;;;;-2.73;100.00;99651.59;15269320;19;20030;-58
2024/01/11 15:10:33;;;;;;;36.33;26.20;;;;;;;-2.87;100.00;99644.13;15297262;19;20029;-55
2024/01/11 15:16:01;;;;;;;39.25;26.40;;;;;;;-3.04;100.00;99642.84;15287216;19;21383;-57
2024/01/11 15:21:28;;;;;;;37.42;26.05;;;;;;;-3.17;100.00;99654.66;15287325;19;20025;-55
2024/01/11 15:26:56;;;;;;;45.05;30.45;;;;;;;-3.37;100.00;99645.53;15288249;19;20058;-58
2024/01/11 15:32:25;;;;;;;46.30;32.20;;;;;;;-3.63;100.00;99641.00;15288480;19;20019;-56
2024/01/11 15:37:51;;;;;;;42.05;30.55;;;;;;;-3.90;100.00;99646.09;15291015;19;20018;-55
2024/01/11 15:43:16;;;;;;;43.83;31.35;;;;;;;-4.15;100.00;99654.59;15290544;19;20018;-54
2024/01/11 15:48:43;;;;;;;46.72;30.65;;;;;;;-4.34;100.00;99662.97;15286523;19;20020;-56
2024/01/11 15:54:09;;;;;;;45.08;29.05;;;;;;;-4.49;100.00;99672.09;15289870;19;20475;-56
2024/01/11 15:59:33;;;;;;;43.00;27.92;;;;;;;-4.54;100.00;99680.97;15290882;19;20022;-58
2024/01/11 16:05:02;;;;;;;36.13;24.58;;;;;;;-4.52;100.00;99677.41;15288206;19;20082;-57
2024/01/11 16:10:27;;;;;;;40.92;28.15;;;;;;;-4.50;100.00;99672.97;15286782;19;20027;-57
2024/01/11 16:15:55;;;;;;;40.58;27.73;;;;;;;-4.53;100.00;99672.19;15285601;19;20549;-54
2024/01/11 16:21:22;;;;;;;35.72;23.65;;;;;;;-4.46;100.00;99679.03;15277545;19;20097;-57
2024/01/11 16:26:47;;;;;;;36.88;24.35;;;;;;;-4.29;100.00;99673.38;15286601;19;20358;-59
2024/01/11 16:32:15;;;;;;;34.60;23.48;;;;;;;-4.21;100.00;99670.56;15285593;19;20022;-55
2024/01/11 16:37:43;;;;;;;32.08;22.92;;;;;;;-4.15;100.00;99673.03;15292232;19;20042;-58
2024/01/11 16:43:10;;;;;;;26.23;18.17;;;;;;;-4.09;100.00;99698.31;15285849;19;20113;-54
2024/01/11 16:48:35;;;;;;;22.75;15.02;;;;;;;-4.05;100.00;99690.31;15287894;19;20028;-55
2024/01/11 16:54:04;;;;;;;28.25;19.83;;;;;;;-4.00;100.00;99710.41;15284004;19;20028;-56
2024/01/11 16:59:29;;;;;;;20.90;14.38;;;;;;;-3.96;100.00;99688.38;15289411;19;20025;-56
2024/01/11 17:04:54;;;;;;;18.00;13.13;;;;;;;-3.90;100.00;99677.69;15285891;19;20348;-53
2024/01/11 17:10:22;;;;;;;16.83;12.40;;;;;;;-3.85;100.00;99670.53;15290945;19;20018;-55
2024/01/11 17:15:53;;;;;;;18.15;13.50;;;;;;;-3.83;100.00;99663.47;15280358;19;20014;-59
2024/01/11 17:21:18;;;;;;;19.77;14.77;;;;;;;-3.79;100.00;99675.63;15280534;19;20014;-56
2024/01/11 17:26:45;;;;;;;18.83;13.68;;;;;;;-3.76;100.00;99680.84;15277466;19;20074;-58
2024/01/11 17:32:10;;;;;;;24.20;16.88;;;;;;;-3.75;100.00;99692.22;15282091;19;20022;-58
2024/01/11 17:37:35;;;;;;;22.23;16.10;;;;;;;-3.76;100.00;99695.75;15287337;19;20031;-56
2024/01/11 17:43:03;;;;;;;23.17;16.58;;;;;;;-3.74;100.00;99700.09;15279239;19;20053;-56
2024/01/11 17:48:27;;;;;;;23.45;16.50;;;;;;;-3.70;100.00;99718.47;15283108;19;20090;-57
2024/01/11 17:53:52;;;;;;;21.88;15.55;;;;;;;-3.68;100.00;99721.91;15284283;19;20019;-56
2024/01/11 17:59:20;;;;;;;23.25;16.77;;;;;;;-3.69;100.00;99718.41;15287679;19;20025;-56
2024/01/11 18:04:46;;;;;;;26.27;18.38;;;;;;;-3.67;100.00;99715.72;15291381;19;20025;-55
2024/01/11 18:10:10;;;;;;;26.88;18.95;;;;;;;-3.65;100.00;99720.06;15292433;19;20018;-57
2024/01/11 18:15:38;;;;;;;26.23;18.25;;;;;;;-3.64;100.00;99726.19;15292710;19;20042;-57
2024/01/11 18:21:05;;;;;;;26.67;20.23;;;;;;;-3.64;100.00;99723.56;15289009;19;20018;-55
2024/01/11 18:26:30;;;;;;;29.90;19.90;;;;;;;-3.65;100.00;99727.09;15288273;19;20024;-51
2024/01/11 18:31:57;;;;;;;27.77;19.92;;;;;;;-3.64;100.00;99726.19;15290635;19;20025;-55
2024/01/11 18:37:26;;;;;;;28.92;20.02;;;;;;;-3.62;100.00;99727.88;15295987;19;20019;-54
2024/01/11 18:42:50;;;;;;;23.70;18.05;;;;;;;-3.58;100.00;99731.28;15290965;19;20473;-56
2024/01/11 18:48:18;;;;;;;27.65;18.35;;;;;;;-3.54;100.00;99737.38;15297856;19;20018;-58
2024/01/11 18:53:42;;;;;;;27.60;17.70;;;;;;;-3.50;100.00;99749.53;15290026;19;20028;-58
2024/01/11 18:59:08;;;;;;;25.75;17.95;;;;;;;-3.50;100.00;99752.16;15289576;19;20353;-53
2024/01/11 19:04:36;;;;;;;23.55;16.27;;;;;;;-3.47;100.00;99757.38;15284863;19;20098;-56
2024/01/11 19:10:01;;;;;;;26.60;17.08;;;;;;;-3.45;100.00;99752.94;15289116;19;20022;-57
2024/01/11 19:15:25;;;;;;;23.73;17.20;;;;;;;-3.41;100.00;99760.72;15288937;19;20366;-54
2024/01/11 19:20:53;;;;;;;24.85;16.27;;;;;;;-3.34;100.00;99763.16;15285333;19;20021;-55
2024/01/11 19:26:18;;;;;;;23.02;15.65;;;;;;;-3.29;100.00;99766.56;15289293;19;20038;-53
2024/01/11 19:31:44;;;;;;;23.15;15.63;;;;;;;-3.26;100.00;99769.97;15288659;19;20098;-54
2024/01/11 19:37:18;;;;;;;24.98;17.48;;;;;;;-3.22;100.00;99783.94;15284564;19;20025;-56
2024/01/11 19:42:43;;;;;;;22.27;16.45;;;;;;;-3.19;100.00;99793.56;15288329;19;20090;-55
2024/01/11 19:48:07;;;;;;;30.55;20.88;;;;;;;-3.20;100.00;99787.41;15293808;19;20014;-57
2024/01/11 19:53:35;;;;;;;29.30;20.02;;;;;;;-3.19;100.00;99785.66;15292408;19;20023;-55
2024/01/11 19:59:00;;;;;;;27.67;18.15;;;;;;;-3.18;100.00;99788.22;15291266;19;20029;-59
2024/01/11 20:04:26;;;;;;;33.22;24.33;;;;;;;-3.19;100.00;99775.94;15292747;19;20438;-57
2024/01/11 20:09:53;;;;;;;35.72;24.80;;;;;;;-3.17;100.00;99797.00;15280303;19;20034;-56
2024/01/11 20:15:18;;;;;;;39.53;24.95;;;;;;;-3.20;100.00;99786.56;15279117;19;20509;-56
2024/01/11 20:20:44;;;;;;;36.35;23.60;;;;;;;-3.21;100.00;99793.56;15290449;19;20465;-57
2024/01/11 20:26:13;;;;;;;36.05;23.63;;;;;;;-3.21;100.00;99793.56;15286733;19;20025;-58
2024/01/11 20:31:41;;;;;;;34.97;24.00;;;;;;;-3.19;100.00;99796.19;15291097;19;20030;-58
2024/01/11 20:37:12;;;;;;;37.13;24.92;;;;;;;-3.19;100.00;99802.31;15287826;19;20729;-56
2024/01/11 20:42:40;;;;;;;40.40;26.05;;;;;;;-3.18;100.00;99803.19;15285411;19;20018;-55
2024/01/11 20:48:04;;;;;;;37.42;25.75;;;;;;;-3.17;100.00;99810.16;15291329;19;20026;-57
2024/01/11 20:53:30;;;;;;;38.28;25.73;;;;;;;-3.15;100.00;99803.09;15286620;19;20022;-55
2024/01/11 20:58:57;;;;;;;39.42;25.80;;;;;;;-3.13;100.00;99818.00;15282454;19;20484;-58
2024/01/11 21:04:25;;;;;;;38.03;26.73;;;;;;;-3.10;100.00;99811.75;15276327;19;20026;-56
2024/01/11 21:09:49;;;;;;;45.08;28.20;;;;;;;-3.06;100.00;99812.53;15312324;19;20368;-59
2024/01/11 21:15:17;;;;;;;41.10;26.67;;;;;;;-3.03;100.00;99809.81;15281090;19;20027;-58
2024/01/11 21:20:43;;;;;;;40.08;27.92;;;;;;;-2.97;100.00;99822.84;15282271;19;20019;-57
2024/01/11 21:26:09;;;;;;;40.78;27.10;;;;;;;-2.97;100.00;99823.72;15275884;19;20040;-58
2024/01/11 21:31:38;;;;;;;41.75;27.42;;;;;;;-2.97;100.00;99818.44;15282269;19;20042;-56
2024/01/11 21:37:09;;;;;;;40.45;27.60;;;;;;;-2.98;100.00;99821.09;15280112;19;20019;-56
2024/01/11 21:42:34;;;;;;;43.47;28.90;;;;;;;-3.00;100.00;99822.94;15273441;19;20038;-57
2024/01/11 21:48:01;;;;;;;47.92;30.67;;;;;;;-2.99;100.00;99822.00;15281026;19;20428;-57
2024/01/11 21:53:29;;;;;;;46.05;29.38;;;;;;;-2.96;100.00;99817.53;15280805;19;20019;-54
2024/01/11 21:58:55;;;;;;;43.42;28.98;;;;;;;-2.92;100.00;99820.94;15285745;19;20022;-54
2024/01/11 22:04:23;;;;;;;45.10;28.45;;;;;;;-2.88;100.00;99827.00;15277413;19;20077;-55
2024/01/11 22:09:47;;;;;;;44.90;28.77;;;;;;;-2.83;100.00;99830.41;15280655;19;20026;-56
2024/01/11 22:15:12;;;;;;;38.67;25.88;;;;;;;-2.82;100.00;99822.44;15278254;19;20046;-56
2024/01/11 22:20:40;;;;;;;39.38;24.95;;;;;;;-2.66;100.00;99832.56;15281515;19;20011;-57
2024/01/11 22:26:05;;;;;;;37.60;26.08;;;;;;;-2.66;100.00;99828.13;15280407;19;20021;-58
2024/01/11 22:31:29;;;;;;;40.38;27.63;;;;;;;-2.65;100.00;99829.03;15284690;19;20029;-56
2024/01/11 22:37:03;;;;;;;44.60;28.17;;;;;;;-2.63;100.00;99828.06;15275042;19;20025;-56
2024/01/11 22:42:28;;;;;;;46.72;29.45;;;;;;;-2.58;100.00;99827.94;15294211;19;20366;-57
2024/01/11 22:47:52;;;;;;;42.95;27.90;;;;;;;-2.57;100.00;99819.09;15291558;19;20021;-58
2024/01/11 22:53:20;;;;;;;45.25;30.00;;;;;;;-2.56;100.00;99815.56;15292901;19;20014;-57
2024/01/11 22:58:44;;;;;;;41.97;26.42;;;;;;;-2.55;100.00;99813.78;15297954;19;20914;-57
2024/01/11 23:04:10;;;;;;;43.83;28.55;;;;;;;-2.58;100.00;99812.09;15290279;19;20029;-58
2024/01/11 23:09:37;;;;;;;41.85;28.50;;;;;;;-2.55;100.00;99824.34;15293875;19;20018;-57
2024/01/11 23:15:03;;;;;;;41.63;27.73;;;;;;;-2.52;100.00;99819.81;15292346;19;20017;-58
2024/01/11 23:20:28;;;;;;;41.22;27.48;;;;;;;-2.43;100.00;99818.69;15285407;19;20471;-57
2024/01/11 23:25:56;;;;;;;41.58;28.33;;;;;;;-2.34;100.00;99822.84;15286749;19;20374;-57
2024/01/11 23:31:22;;;;;;;39.38;28.20;;;;;;;-2.26;100.00;99822.63;15294991;19;20011;-58
2024/01/11 23:36:47;;;;;;;37.58;27.15;;;;;;;-2.27;100.00;99813.81;15031927;19;5001583;-57
2024/01/11 23:42:14;;;;;;;39.10;27.15;;;;;;;-2.23;100.00;99804.03;15289285;19;20018;-57
2024/01/11 23:47:39;;;;;;;36.85;25.95;;;;;;;-2.07;100.00;99785.97;15294707;19;20031;-58
2024/01/11 23:53:03;;;;;;;37.13;25.38;;;;;;;-2.03;100.00;99791.13;15283483;19;20013;-57
2024/01/11 23:58:31;;;;;;;36.67;26.52;;;;;;;-1.98;100.00;99796.25;15292989;19;20041;-58
